Time;durP1;ratioP1;P1;durP2;ratioP2;P2;SDS_P1;SDS_P2;PMS_P1;PMS_P2;Temp;Humidity;BMP_temperature;BMP_pressure;BME280_temperature;BME280_humidity;BME280_pressure;Samples;Min_cycle;Max_cycle;Signal;HPM_P1;HPM_P2
2023/03/17 00:00:26;;;;;;;14.40;9.00;;;;;;;10.68;62.67;100672.38;108232;1273;21982;-66
2023/03/17 00:02:52;;;;;;;12.50;8.50;;;;;;;10.65;62.95;100673.98;108291;1273;22038;-70
2023/03/17 00:05:21;;;;;;;14.50;7.70;;;;;;;10.62;63.12;100675.40;108112;1286;21981;-67
2023/03/17 00:07:49;;;;;;;13.50;7.90;;;;;;;10.59;63.06;100674.91;108221;1285;22444;-66
2023/03/17 00:10:26;;;;;;;13.40;8.40;;;;;;;10.58;62.99;100672.64;108359;1285;21992;-71
2023/03/17 00:12:53;;;;;;;13.60;8.70;;;;;;;10.60;62.89;100672.81;108201;1285;21982;-70
2023/03/17 00:15:24;;;;;;;14.50;8.10;;;;;;;10.61;62.83;100670.84;108349;1284;23729;-66
2023/03/17 00:17:50;;;;;;;10.80;7.10;;;;;;;10.62;62.80;100672.59;108285;1286;21987;-67
2023/03/17 00:20:31;;;;;;;14.10;7.90;;;;;;;10.66;62.41;100671.51;108141;1286;21996;-67
2023/03/17 00:22:58;;;;;;;13.50;8.00;;;;;;;10.72;62.42;100671.64;108172;1286;21988;-67
2023/03/17 00:25:26;;;;;;;13.00;8.10;;;;;;;10.75;62.22;100671.27;108234;1285;23442;-71
2023/03/17 00:27:52;;;;;;;13.70;8.40;;;;;;;10.78;62.18;100670.72;108180;1285;23932;-71
2023/03/17 00:30:20;;;;;;;13.30;8.00;;;;;;;10.76;62.14;100671.77;108149;1285;21987;-70
2023/03/17 00:32:46;;;;;;;11.80;7.50;;;;;;;10.74;62.11;100669.87;108130;1282;22001;-71
2023/03/17 00:35:24;;;;;;;12.40;7.60;;;;;;;10.68;62.07;100669.38;108082;1285;23757;-66
2023/03/17 00:37:51;;;;;;;14.50;8.50;;;;;;;10.67;62.24;100674.14;108187;1285;22049;-65
2023/03/17 00:40:21;;;;;;;13.50;7.80;;;;;;;10.66;62.18;100675.02;108185;1285;21958;-70
2023/03/17 00:42:50;;;;;;;13.70;8.10;;;;;;;10.67;62.09;100678.16;108278;1283;21989;-66
2023/03/17 00:45:16;;;;;;;13.50;8.30;;;;;;;10.68;62.03;100681.33;108283;1273;22007;-71
2023/03/17 00:47:44;;;;;;;18.40;8.30;;;;;;;10.72;61.97;100683.77;108252;1283;21986;-70
2023/03/17 00:50:23;;;;;;;14.10;8.20;;;;;;;10.73;62.03;100684.10;108223;1285;21995;-70
2023/03/17 00:52:56;;;;;;;14.40;7.50;;;;;;;10.70;61.90;100679.02;108132;1285;21986;-71
2023/03/17 00:55:23;;;;;;;14.40;8.20;;;;;;;10.64;61.95;100675.39;108108;1272;21995;-71
2023/03/17 00:57:49;;;;;;;16.00;8.50;;;;;;;10.48;62.52;100674.98;108293;1284;22008;-71
2023/03/17 01:00:21;;;;;;;12.10;7.50;;;;;;;10.41;62.95;100677.66;108246;1285;21983;-67
2023/03/17 01:02:48;;;;;;;13.60;7.50;;;;;;;10.46;62.61;100680.60;108223;1273;21984;-66
2023/03/17 01:05:13;;;;;;;16.00;8.20;;;;;;;10.50;62.38;100686.55;108150;1285;21984;-70
2023/03/17 01:07:40;;;;;;;12.90;7.20;;;;;;;10.59;61.78;100685.79;108367;1285;22029;-66
2023/03/17 01:10:11;;;;;;;14.20;7.90;;;;;;;10.59;61.83;100687.55;108120;1285;21988;-67
2023/03/17 01:12:37;;;;;;;16.90;7.70;;;;;;;10.57;61.62;100686.86;108192;1285;22458;-70
2023/03/17 01:15:04;;;;;;;13.80;7.40;;;;;;;10.59;61.35;100691.06;108249;1285;22007;-66
2023/03/17 01:17:31;;;;;;;12.30;7.10;;;;;;;10.63;61.35;100691.54;108235;1285;21997;-66
2023/03/17 01:19:57;;;;;;;15.20;7.70;;;;;;;10.61;61.24;100694.71;108129;1285;22014;-67
2023/03/17 01:22:23;;;;;;;13.70;7.70;;;;;;;10.58;61.54;100692.12;108272;1285;22110;-65
2023/03/17 01:24:50;;;;;;;14.70;7.30;;;;;;;10.53;61.56;100697.23;108205;1285;21987;-66
2023/03/17 01:27:17;;;;;;;13.60;6.30;;;;;;;10.42;61.79;100699.23;108264;1286;21999;-65
2023/03/17 01:29:43;;;;;;;10.10;6.10;;;;;;;10.43;61.59;100703.96;108274;1286;21987;-66
2023/03/17 01:32:13;;;;;;;15.40;8.90;;;;;;;10.47;61.50;100705.52;108180;1285;21967;-66
2023/03/17 01:34:39;;;;;;;13.20;8.00;;;;;;;10.52;61.53;100705.83;108208;1285;21993;-70
2023/03/17 01:37:05;;;;;;;17.90;10.30;;;;;;;10.54;61.38;100710.92;108189;1286;22009;-66
2023/03/17 01:39:32;;;;;;;18.30;10.50;;;;;;;10.52;61.37;100710.58;108130;1286;21987;-67
2023/03/17 01:42:17;;;;;;;13.80;7.40;;;;;;;10.46;61.29;100713.25;108128;1284;23135;-66
2023/03/17 01:45:38;;;;;;;11.60;6.90;;;;;;;10.36;61.35;100720.13;108099;1273;21989;-69
2023/03/17 01:48:04;;;;;;;12.00;7.40;;;;;;;10.33;61.35;100723.47;107782;1291;22018;-65
2023/03/17 01:50:33;;;;;;;12.10;7.00;;;;;;;10.33;61.07;100724.88;108111;1286;21992;-66
2023/03/17 01:52:59;;;;;;;13.70;7.50;;;;;;;10.33;61.19;100726.98;108147;1286;22034;-69
2023/03/17 01:55:29;;;;;;;10.80;5.80;;;;;;;10.32;61.38;100728.73;108132;1277;21986;-70
2023/03/17 01:57:55;;;;;;;7.90;5.70;;;;;;;10.30;61.16;100732.77;107372;1285;1002491;-69
2023/03/17 02:00:23;;;;;;;12.60;7.40;;;;;;;10.29;61.11;100734.37;108111;1286;21984;-66
2023/03/17 02:02:51;;;;;;;10.70;6.70;;;;;;;10.29;61.20;100733.66;108207;1285;21987;-69
2023/03/17 02:05:19;;;;;;;9.80;5.90;;;;;;;10.33;60.99;100736.63;108186;1285;22101;-69
2023/03/17 02:07:45;;;;;;;11.30;6.50;;;;;;;10.36;61.02;100737.48;107340;1285;1002447;-69
2023/03/17 02:10:11;;;;;;;19.10;10.00;;;;;;;10.36;60.94;100738.37;108051;1285;21988;-69
2023/03/17 02:12:39;;;;;;;11.60;7.40;;;;;;;10.37;60.86;100742.04;108160;1282;21996;-69
2023/03/17 02:15:06;;;;;;;12.70;7.70;;;;;;;10.37;60.84;100746.60;108170;1285;21984;-68
2023/03/17 02:17:32;;;;;;;12.20;7.70;;;;;;;10.39;60.65;100749.05;108211;1285;21985;-69
2023/03/17 02:20:16;;;;;;;9.50;6.60;;;;;;;10.39;60.58;100750.63;108266;1285;22759;-67
2023/03/17 02:22:49;;;;;;;13.90;8.40;;;;;;;10.36;60.58;100753.80;108231;1274;22030;-69
2023/03/17 02:25:15;;;;;;;12.40;7.10;;;;;;;10.37;60.55;100759.95;107333;1274;1002564;-68
2023/03/17 02:27:42;;;;;;;13.70;7.60;;;;;;;10.42;60.39;100760.46;108332;1285;22457;-66
2023/03/17 02:30:11;;;;;;;9.70;5.60;;;;;;;10.43;60.48;100759.58;108098;1273;21996;-66
2023/03/17 02:32:38;;;;;;;8.80;5.40;;;;;;;10.42;60.29;100762.19;108212;1285;21988;-66
2023/03/17 02:35:09;;;;;;;7.60;4.90;;;;;;;10.42;60.27;100764.13;108198;1285;21983;-67
2023/03/17 02:37:37;;;;;;;8.40;4.90;;;;;;;10.40;60.28;100763.96;108214;1285;21991;-69
2023/03/17 02:40:04;;;;;;;7.50;4.50;;;;;;;10.26;60.86;100767.35;108046;1281;21984;-69
2023/03/17 02:42:34;;;;;;;7.80;5.60;;;;;;;10.35;60.60;100766.61;108104;1285;22025;-66
2023/03/17 02:45:01;;;;;;;6.30;4.40;;;;;;;10.43;60.27;100763.25;108066;1285;21987;-70
2023/03/17 02:47:31;;;;;;;9.40;5.40;;;;;;;10.44;60.15;100762.19;108127;1285;24397;-66
2023/03/17 02:49:57;;;;;;;7.10;4.40;;;;;;;10.45;59.97;100761.14;108024;1285;22022;-70
2023/03/17 02:52:23;;;;;;;6.10;4.60;;;;;;;10.45;59.96;100762.89;108084;1285;21999;-66
2023/03/17 02:54:49;;;;;;;6.10;4.50;;;;;;;10.40;59.90;100765.02;108081;1285;21984;-67
2023/03/17 02:57:15;;;;;;;7.00;5.00;;;;;;;10.40;59.73;100765.38;108139;1285;21947;-66
2023/03/17 02:59:44;;;;;;;6.70;4.90;;;;;;;10.38;59.97;100765.72;108118;1285;21990;-68
2023/03/17 03:02:10;;;;;;;7.60;5.00;;;;;;;10.28;60.20;100761.90;108081;1282;21990;-70
2023/03/17 03:04:36;;;;;;;8.10;5.50;;;;;;;10.20;60.29;100768.42;108104;1285;22005;-65
2023/03/17 03:07:04;;;;;;;7.60;5.00;;;;;;;10.10;60.82;100771.11;108376;1285;21984;-66
2023/03/17 03:09:30;;;;;;;6.00;4.10;;;;;;;10.05;61.04;100771.83;108300;1285;21997;-65
2023/03/17 03:11:56;;;;;;;6.60;4.40;;;;;;;10.05;60.87;100774.63;108290;1281;22022;-65
2023/03/17 03:14:22;;;;;;;6.90;5.00;;;;;;;10.00;61.14;100778.16;108084;1285;21988;-66
2023/03/17 03:16:48;;;;;;;7.20;4.40;;;;;;;9.97;61.10;100773.42;108212;1285;21996;-68
2023/03/17 03:19:15;;;;;;;8.10;4.70;;;;;;;9.97;61.04;100774.13;108207;1285;22021;-65
2023/03/17 03:21:41;;;;;;;5.70;4.00;;;;;;;10.00;60.91;100772.70;107523;1285;1002258;-65
2023/03/17 03:24:08;;;;;;;6.00;4.00;;;;;;;9.93;61.16;100773.79;108107;1283;21983;-69
2023/03/17 03:26:37;;;;;;;5.00;4.30;;;;;;;9.91;61.58;100775.91;108129;1285;21983;-69
2023/03/17 03:29:04;;;;;;;6.10;4.10;;;;;;;9.91;61.51;100775.91;108068;1285;21987;-64
2023/03/17 03:31:31;;;;;;;7.40;4.20;;;;;;;9.89;61.55;100778.72;108101;1285;21985;-64
2023/03/17 03:33:57;;;;;;;6.70;4.30;;;;;;;9.92;61.17;100779.42;108123;1285;21997;-65
2023/03/17 03:36:24;;;;;;;6.90;4.60;;;;;;;9.92;61.17;100773.45;108227;1285;22183;-69
2023/03/17 03:38:50;;;;;;;6.50;4.40;;;;;;;9.92;61.06;100775.21;108098;1285;21987;-69
2023/03/17 03:41:17;;;;;;;4.90;3.40;;;;;;;9.94;61.15;100776.96;108152;1285;21986;-66
2023/03/17 03:43:45;;;;;;;7.10;3.70;;;;;;;10.01;60.96;100773.58;108144;1285;23390;-68
2023/03/17 03:46:11;;;;;;;4.60;3.20;;;;;;;10.08;60.47;100780.59;108221;1285;21987;-66
2023/03/17 03:48:37;;;;;;;4.70;3.40;;;;;;;10.05;60.12;100783.58;108228;1285;22003;-66
2023/03/17 03:51:03;;;;;;;5.30;3.50;;;;;;;10.07;60.20;100787.44;108148;1285;21999;-71
2023/03/17 03:53:29;;;;;;;6.20;3.50;;;;;;;10.08;60.12;100787.06;108055;1282;21990;-72
2023/03/17 03:55:57;;;;;;;4.50;3.40;;;;;;;10.11;59.97;100791.63;108123;1285;22011;-65
2023/03/17 03:58:23;;;;;;;6.70;3.80;;;;;;;10.02;60.13;100793.57;108110;1285;22166;-69
2023/03/17 04:00:49;;;;;;;7.30;3.90;;;;;;;9.95;60.14;100796.57;108143;1285;22020;-70
2023/03/17 04:03:15;;;;;;;5.20;3.60;;;;;;;9.96;60.16;100801.48;108284;1283;21979;-67
2023/03/17 04:05:42;;;;;;;5.80;3.10;;;;;;;10.00;60.02;100801.81;108151;1285;21994;-67
2023/03/17 04:08:10;;;;;;;6.50;3.10;;;;;;;10.04;59.95;100806.19;108199;1285;21979;-70
2023/03/17 04:10:37;;;;;;;8.00;3.40;;;;;;;10.09;59.87;100807.59;108260;1283;21992;-69
2023/03/17 04:13:03;;;;;;;5.30;3.20;;;;;;;10.11;59.91;100804.25;108074;1285;21987;-71
2023/03/17 04:15:32;;;;;;;6.60;3.10;;;;;;;10.15;59.75;100812.66;108081;1282;23388;-66
2023/03/17 04:17:58;;;;;;;4.70;3.10;;;;;;;10.16;59.66;100811.77;108092;1285;21992;-65
2023/03/17 04:20:24;;;;;;;7.20;3.90;;;;;;;10.17;59.38;100817.02;108066;1277;21983;-65
2023/03/17 04:22:51;;;;;;;6.40;3.50;;;;;;;10.16;59.39;100816.67;108229;1285;21987;-70
2023/03/17 04:25:17;;;;;;;5.40;3.40;;;;;;;10.16;59.36;100819.48;108165;1285;21986;-65
2023/03/17 04:27:42;;;;;;;4.40;3.10;;;;;;;10.08;59.73;100826.52;108108;1285;21987;-65
2023/03/17 04:30:12;;;;;;;5.40;2.80;;;;;;;10.02;60.12;100830.22;108077;1285;21986;-65
2023/03/17 04:32:38;;;;;;;5.40;3.40;;;;;;;10.06;60.17;100837.58;108126;1285;24455;-69
2023/03/17 04:35:12;;;;;;;6.20;3.30;;;;;;;10.05;60.02;100839.16;108163;1273;21986;-65
2023/03/17 04:37:38;;;;;;;6.70;3.30;;;;;;;10.03;59.96;100843.89;108106;1274;23063;-69
2023/03/17 04:40:07;;;;;;;6.90;3.50;;;;;;;10.11;59.81;100845.96;108266;1286;21998;-70
2023/03/17 04:42:32;;;;;;;6.90;3.60;;;;;;;10.11;59.96;100844.73;108239;1285;22043;-67
2023/03/17 04:44:58;;;;;;;6.50;3.30;;;;;;;10.20;59.99;100845.06;108141;1283;21996;-66
2023/03/17 04:47:24;;;;;;;9.30;3.50;;;;;;;10.31;60.19;100847.84;108152;1285;22015;-64
2023/03/17 04:49:50;;;;;;;8.60;4.20;;;;;;;10.36;59.63;100853.61;108162;1285;22029;-71
2023/03/17 04:52:19;;;;;;;5.20;2.90;;;;;;;10.37;58.96;100857.12;108184;1285;22455;-65
2023/03/17 04:54:45;;;;;;;6.10;3.10;;;;;;;10.23;59.03;100857.34;108182;1285;21983;-69
2023/03/17 04:57:11;;;;;;;7.20;3.30;;;;;;;10.23;59.26;100861.89;108169;1285;21986;-65
2023/03/17 04:59:37;;;;;;;5.90;3.10;;;;;;;10.16;59.36;100862.63;108175;1285;21985;-65
2023/03/17 05:02:03;;;;;;;4.90;2.80;;;;;;;10.09;59.51;100868.77;108182;1283;22008;-66
2023/03/17 05:04:33;;;;;;;5.00;3.10;;;;;;;10.20;58.96;100874.70;108100;1282;23042;-69
2023/03/17 05:06:59;;;;;;;7.30;3.60;;;;;;;10.26;58.61;100878.38;108096;1285;21983;-70
2023/03/17 05:09:27;;;;;;;4.50;2.60;;;;;;;10.26;58.44;100880.48;108082;1285;21995;-65
2023/03/17 05:11:57;;;;;;;5.60;3.10;;;;;;;10.28;58.48;100884.52;108107;1285;21986;-70
2023/03/17 05:15:08;;;;;;;6.80;2.80;;;;;;;10.31;58.35;100886.08;108207;1285;21986;-66
2023/03/17 05:18:05;;;;;;;5.70;3.20;;;;;;;10.33;58.18;100890.98;108404;1285;22013;-72
2023/03/17 05:20:37;;;;;;;6.10;2.60;;;;;;;10.33;58.13;100890.98;108519;1285;23051;-69
2023/03/17 05:23:04;;;;;;;4.80;2.90;;;;;;;10.32;58.05;100892.73;108316;1285;23098;-65
2023/03/17 05:25:31;;;;;;;4.10;2.90;;;;;;;10.32;58.15;100893.80;108229;1283;21998;-68
2023/03/17 05:27:57;;;;;;;5.80;2.90;;;;;;;10.30;58.04;100895.73;108240;1285;22003;-65
2023/03/17 05:30:24;;;;;;;3.90;2.70;;;;;;;10.30;58.03;100899.23;108235;1285;21991;-67
2023/03/17 05:32:51;;;;;;;4.20;2.80;;;;;;;10.30;58.02;100898.17;108223;1285;21989;-68
2023/03/17 05:35:17;;;;;;;4.00;3.00;;;;;;;10.26;58.03;100902.58;108165;1285;21989;-70
2023/03/17 05:37:45;;;;;;;4.90;2.90;;;;;;;10.21;58.09;100906.62;108148;1282;22051;-70
2023/03/17 05:40:11;;;;;;;5.50;2.90;;;;;;;10.23;58.29;100909.59;108112;1285;21989;-65
2023/03/17 05:42:37;;;;;;;5.90;2.60;;;;;;;10.28;58.39;100911.70;108116;1285;22577;-66
2023/03/17 05:45:04;;;;;;;8.80;3.20;;;;;;;10.33;58.36;100910.80;108103;1285;22002;-66
2023/03/17 05:47:32;;;;;;;4.60;3.10;;;;;;;10.36;58.33;100913.08;108209;1285;21994;-65
2023/03/17 05:50:01;;;;;;;4.30;2.30;;;;;;;10.38;58.21;100913.25;108179;1282;23736;-66
2023/03/17 05:52:27;;;;;;;4.70;2.90;;;;;;;10.41;58.05;100919.23;108137;1285;21989;-65
2023/03/17 05:54:53;;;;;;;4.40;2.90;;;;;;;10.41;58.12;100921.51;108134;1285;21993;-70
2023/03/17 05:57:20;;;;;;;4.30;2.70;;;;;;;10.39;57.91;100918.34;108291;1285;21989;-70
2023/03/17 05:59:46;;;;;;;4.20;2.50;;;;;;;10.38;58.02;100916.23;108151;1285;21986;-66
2023/03/17 06:02:12;;;;;;;5.10;3.10;;;;;;;10.39;57.96;100917.64;108206;1285;21986;-65
2023/03/17 06:04:38;;;;;;;6.50;2.90;;;;;;;10.38;57.98;100915.36;108200;1285;21994;-66
2023/03/17 06:07:05;;;;;;;4.90;2.60;;;;;;;10.36;57.82;100915.55;108145;1285;21989;-66
2023/03/17 06:09:32;;;;;;;5.20;2.90;;;;;;;10.35;57.94;100915.54;108142;1285;21998;-68
2023/03/17 06:11:59;;;;;;;4.80;2.60;;;;;;;10.36;57.83;100914.66;108315;1285;23725;-69
2023/03/17 06:14:25;;;;;;;3.40;2.20;;;;;;;10.35;57.82;100913.42;108136;1285;22027;-66
2023/03/17 06:17:11;;;;;;;4.20;2.80;;;;;;;10.32;57.82;100917.30;108112;1285;23034;-70
2023/03/17 06:19:39;;;;;;;4.60;2.80;;;;;;;10.33;57.79;100921.32;108104;1282;21985;-69
2023/03/17 06:22:06;;;;;;;4.70;2.80;;;;;;;10.38;57.82;100920.81;108219;1283;21995;-66
2023/03/17 06:24:32;;;;;;;4.70;2.80;;;;;;;10.40;57.57;100923.07;108209;1285;21983;-71
2023/03/17 06:27:01;;;;;;;4.30;2.20;;;;;;;10.41;57.44;100924.14;108305;1285;21971;-66
2023/03/17 06:29:28;;;;;;;5.90;2.40;;;;;;;10.41;57.45;100923.44;108165;1285;21984;-70
2023/03/17 06:31:53;;;;;;;3.80;2.40;;;;;;;10.46;57.43;100929.91;108065;1285;21997;-70
2023/03/17 06:34:21;;;;;;;4.90;3.40;;;;;;;10.53;57.30;100930.61;108095;1285;22029;-70
2023/03/17 06:36:48;;;;;;;15.40;9.20;;;;;;;10.57;57.29;100929.73;108297;1282;21987;-70
2023/03/17 06:39:14;;;;;;;39.30;17.90;;;;;;;10.60;57.33;100927.59;108095;1285;21991;-68
2023/03/17 06:41:41;;;;;;;15.40;8.00;;;;;;;10.61;57.17;100924.79;108129;1285;21990;-67
2023/03/17 06:44:07;;;;;;;13.10;5.20;;;;;;;10.57;56.62;100923.38;108184;1285;21991;-66
2023/03/17 06:46:34;;;;;;;12.50;6.60;;;;;;;10.57;56.56;100926.20;108237;1286;22017;-67
2023/03/17 06:49:02;;;;;;;9.10;5.00;;;;;;;10.56;56.96;100924.80;108147;1285;21953;-68
2023/03/17 06:51:31;;;;;;;;;;;;;;;10.62;56.90;100922.85;108187;1285;21976;-70
2023/03/17 06:53:57;;;;;;;5.80;2.90;;;;;;;10.67;56.70;100920.37;108162;1285;22007;-66
2023/03/17 06:56:22;;;;;;;6.60;3.00;;;;;;;10.71;56.52;100921.59;108246;1285;21990;-68
2023/03/17 06:58:51;;;;;;;3.30;2.10;;;;;;;10.71;56.42;100928.08;108280;1282;21991;-67
2023/03/17 07:01:17;;;;;;;6.10;3.40;;;;;;;10.70;56.01;100931.24;108145;1285;22736;-67
2023/03/17 07:03:44;;;;;;;3.30;2.20;;;;;;;10.72;56.07;100936.16;108272;1282;21994;-66
2023/03/17 07:06:10;;;;;;;4.00;2.40;;;;;;;10.78;56.34;100940.34;108243;1285;21983;-69
2023/03/17 07:08:35;;;;;;;5.60;3.60;;;;;;;10.83;56.22;100937.85;108274;1285;21983;-66
2023/03/17 07:11:04;;;;;;;5.90;3.40;;;;;;;10.84;56.08;100936.61;108362;1285;21996;-66
2023/03/17 07:13:34;;;;;;;5.80;2.80;;;;;;;10.80;55.79;100936.11;108149;1285;23320;-70
2023/03/17 07:16:01;;;;;;;14.00;7.30;;;;;;;10.79;55.21;100934.37;108175;1285;1002213;-70
2023/03/17 07:18:32;;;;;;;19.90;11.40;;;;;;;10.83;55.53;100929.43;108167;1285;23058;-71
2023/03/17 07:21:00;;;;;;;8.60;4.20;;;;;;;10.84;55.60;100929.95;108154;1286;21989;-66
2023/03/17 07:23:26;;;;;;;13.60;8.30;;;;;;;10.86;55.29;100929.59;108160;1286;21987;-70
2023/03/17 07:25:52;;;;;;;6.00;3.40;;;;;;;10.96;55.79;100929.38;108157;1286;21956;-67
2023/03/17 07:28:20;;;;;;;5.10;2.60;;;;;;;10.99;55.60;100927.61;108207;1285;21977;-70
2023/03/17 07:30:51;;;;;;;3.70;2.30;;;;;;;11.06;55.58;100930.02;108142;1285;21992;-71
2023/03/17 07:33:19;;;;;;;12.00;8.20;;;;;;;11.05;55.41;100931.95;108177;1286;22024;-69
2023/03/17 07:35:49;;;;;;;4.30;2.60;;;;;;;11.02;54.71;100934.08;108186;1284;22003;-69
2023/03/17 07:38:17;;;;;;;3.50;2.30;;;;;;;11.06;54.71;100933.52;108188;1285;22008;-67
2023/03/17 07:40:45;;;;;;;5.10;2.20;;;;;;;11.09;54.73;100934.73;108192;1285;21992;-70
2023/03/17 07:43:13;;;;;;;3.60;2.20;;;;;;;11.10;54.64;100941.41;107430;1285;1002196;-68
2023/03/17 07:45:39;;;;;;;5.20;2.70;;;;;;;11.17;54.70;100940.67;108173;1286;21991;-67
2023/03/17 07:48:05;;;;;;;6.40;3.70;;;;;;;11.21;54.85;100944.52;108189;1286;21999;-69
2023/03/17 07:50:33;;;;;;;5.10;3.70;;;;;;;11.22;54.62;100950.66;107408;1285;1006900;-67
2023/03/17 07:52:59;;;;;;;4.80;3.00;;;;;;;11.22;54.14;100951.89;108195;1286;21986;-70
2023/03/17 07:55:25;;;;;;;5.40;3.40;;;;;;;11.25;54.23;100951.34;108155;1286;21987;-69
2023/03/17 07:57:51;;;;;;;6.30;4.20;;;;;;;11.29;54.36;100953.95;108240;1285;22761;-71
2023/03/17 08:00:18;;;;;;;6.90;3.00;;;;;;;11.30;54.17;100955.16;107449;1285;1003193;-67
2023/03/17 08:02:44;;;;;;;8.20;3.50;;;;;;;11.31;54.07;100957.63;108179;1285;21985;-70
2023/03/17 08:05:10;;;;;;;7.90;3.90;;;;;;;11.29;53.87;100956.75;108122;1285;22095;-67
2023/03/17 08:07:36;;;;;;;6.90;3.70;;;;;;;11.36;54.25;100961.81;108143;1272;21995;-69
2023/03/17 08:10:04;;;;;;;12.40;7.60;;;;;;;11.41;54.16;100963.20;108204;1284;21983;-67
2023/03/17 08:12:30;;;;;;;10.90;6.50;;;;;;;11.44;54.13;100963.16;108184;1285;22940;-66
2023/03/17 08:15:03;;;;;;;8.30;4.20;;;;;;;11.43;53.57;100961.06;108103;1286;21993;-66
2023/03/17 08:17:30;;;;;;;4.90;3.00;;;;;;;11.44;53.49;100964.93;108147;1286;21984;-68
2023/03/17 08:19:56;;;;;;;6.20;2.50;;;;;;;11.48;53.66;100967.18;108127;1286;21993;-66
2023/03/17 08:22:22;;;;;;;4.90;2.50;;;;;;;11.54;53.64;100965.55;107377;1286;1002848;-72
2023/03/17 08:24:48;;;;;;;5.10;3.30;;;;;;;11.62;53.89;100969.20;108193;1285;21991;-65
2023/03/17 08:27:14;;;;;;;5.80;3.20;;;;;;;11.67;53.76;100972.52;108176;1285;22011;-69
2023/03/17 08:29:42;;;;;;;6.20;3.50;;;;;;;11.72;53.90;100974.23;108162;1285;21983;-66
2023/03/17 08:32:09;;;;;;;6.20;3.60;;;;;;;11.77;53.83;100976.81;108172;1285;21990;-69
2023/03/17 08:34:35;;;;;;;6.20;3.60;;;;;;;11.82;53.54;100978.90;108276;1274;22002;-67
2023/03/17 08:37:01;;;;;;;10.00;6.80;;;;;;;11.87;53.42;100975.88;108177;1286;21994;-66
2023/03/17 08:39:28;;;;;;;8.10;3.70;;;;;;;11.91;53.52;100974.26;108160;1286;21987;-69
2023/03/17 08:41:55;;;;;;;7.70;3.10;;;;;;;11.98;53.50;100977.19;108258;1285;21992;-66
2023/03/17 08:44:21;;;;;;;4.70;2.60;;;;;;;12.09;53.76;100972.38;108155;1285;21998;-67
2023/03/17 08:46:48;;;;;;;5.20;2.50;;;;;;;12.19;53.78;100976.68;108228;1283;21984;-68
2023/03/17 08:49:15;;;;;;;5.90;2.90;;;;;;;12.26;53.32;100979.96;108229;1286;21990;-67
2023/03/17 08:51:41;;;;;;;4.70;2.30;;;;;;;12.26;52.72;100984.20;108139;1285;21995;-69
2023/03/17 08:54:07;;;;;;;4.90;2.60;;;;;;;12.26;52.60;100987.17;108156;1285;21977;-67
2023/03/17 08:56:35;;;;;;;6.70;2.70;;;;;;;12.28;52.51;100987.16;108194;1285;21984;-67
2023/03/17 08:59:04;;;;;;;11.50;3.00;;;;;;;12.30;52.52;100985.56;108124;1285;21991;-69
2023/03/17 09:01:31;;;;;;;6.10;2.70;;;;;;;12.30;52.55;100987.31;108211;1285;21986;-69
2023/03/17 09:03:56;;;;;;;5.10;3.40;;;;;;;12.33;52.72;100988.17;108155;1285;21992;-68
2023/03/17 09:06:24;;;;;;;5.20;2.80;;;;;;;12.31;51.82;100988.54;108094;1285;21987;-67
2023/03/17 09:08:54;;;;;;;3.60;2.30;;;;;;;12.33;52.48;100989.04;108073;1285;21985;-68
2023/03/17 09:11:22;;;;;;;4.60;3.20;;;;;;;12.35;52.22;100985.14;108091;1285;21985;-70
2023/03/17 09:13:48;;;;;;;6.10;3.70;;;;;;;12.34;52.00;100982.86;108139;1285;21987;-66
2023/03/17 09:16:14;;;;;;;7.70;2.80;;;;;;;12.36;52.15;100980.74;108112;1285;21984;-73
2023/03/17 09:18:40;;;;;;;6.30;3.30;;;;;;;12.42;52.38;100984.55;108071;1285;22019;-68
2023/03/17 09:21:09;;;;;;;7.00;3.40;;;;;;;12.50;52.21;100982.36;108116;1285;21981;-68
2023/03/17 09:23:36;;;;;;;7.90;3.50;;;;;;;12.57;52.02;100981.40;108256;1285;21989;-66
2023/03/17 09:26:02;;;;;;;4.70;3.10;;;;;;;12.61;51.71;100983.81;108101;1285;21986;-69
2023/03/17 09:28:28;;;;;;;5.40;3.60;;;;;;;12.64;51.73;100985.55;108199;1285;21987;-66
2023/03/17 09:31:02;;;;;;;7.70;3.40;;;;;;;12.70;51.64;100984.24;108145;1285;22048;-69
2023/03/17 09:33:30;;;;;;;5.10;2.40;;;;;;;12.70;51.07;100985.46;108164;1285;23743;-70
2023/03/17 09:35:56;;;;;;;4.00;2.10;;;;;;;12.67;50.68;100979.34;108194;1286;21987;-71
2023/03/17 09:38:26;;;;;;;4.10;2.50;;;;;;;12.69;50.95;100980.90;108229;1285;21989;-67
2023/03/17 09:41:11;;;;;;;7.40;3.50;;;;;;;12.65;50.52;100988.36;108278;1285;22024;-69
2023/03/17 09:44:11;;;;;;;5.20;3.20;;;;;;;12.62;50.45;100986.62;108206;1285;21986;-67
2023/03/17 09:46:57;;;;;;;10.10;5.50;;;;;;;12.72;50.86;100988.81;108122;1285;22175;-70
2023/03/17 09:49:54;;;;;;;9.10;4.30;;;;;;;12.76;50.59;100988.77;108205;1285;21997;-66
2023/03/17 09:52:27;;;;;;;7.50;3.80;;;;;;;12.76;50.37;100995.98;108085;1285;22023;-66
2023/03/17 09:54:53;;;;;;;4.80;2.70;;;;;;;12.74;50.22;100999.35;108168;1284;22083;-67
2023/03/17 09:57:34;;;;;;;3.70;2.20;;;;;;;12.78;50.82;101002.65;108132;1279;21994;-67
2023/03/17 10:00:06;;;;;;;3.70;2.10;;;;;;;12.83;50.90;101004.52;108111;1285;22177;-67
2023/03/17 10:02:34;;;;;;;6.50;2.60;;;;;;;12.87;50.82;101000.08;108106;1285;21989;-69
2023/03/17 10:05:11;;;;;;;5.00;2.30;;;;;;;12.95;50.91;101006.69;108126;1285;21987;-68
2023/03/17 10:08:03;;;;;;;4.40;2.10;;;;;;;12.99;50.50;101002.23;108134;1285;21990;-67
2023/03/17 10:10:56;;;;;;;5.60;2.80;;;;;;;13.03;50.41;100999.71;108109;1283;21990;-67
2023/03/17 10:13:27;;;;;;;4.30;2.10;;;;;;;13.05;50.50;101003.02;108186;1286;21998;-66
2023/03/17 10:15:56;;;;;;;7.50;4.00;;;;;;;13.04;50.33;101006.57;108151;1286;21993;-66
2023/03/17 10:18:27;;;;;;;6.00;3.60;;;;;;;13.02;50.26;101006.41;108160;1286;21991;-67
2023/03/17 10:20:58;;;;;;;5.10;2.70;;;;;;;12.92;50.34;101001.94;108199;1286;22007;-67
2023/03/17 10:23:31;;;;;;;4.80;2.30;;;;;;;12.84;50.34;100998.70;108178;1286;23634;-69
2023/03/17 10:26:01;;;;;;;5.40;2.50;;;;;;;12.81;50.52;100997.32;108147;1286;22048;-67
2023/03/17 10:28:29;;;;;;;5.20;3.10;;;;;;;12.80;50.16;101000.35;108166;1286;22046;-66
2023/03/17 10:31:11;;;;;;;6.60;3.50;;;;;;;12.83;50.50;101001.71;108173;1286;21995;-66
2023/03/17 10:33:54;;;;;;;11.60;6.20;;;;;;;12.85;50.39;100997.27;108122;1286;22002;-67
2023/03/17 10:36:37;;;;;;;11.30;7.10;;;;;;;12.90;50.60;100998.27;108138;1286;22104;-67
2023/03/17 10:39:04;;;;;;;6.20;3.30;;;;;;;12.94;50.38;101000.70;108212;1285;21990;-67
2023/03/17 10:41:31;;;;;;;7.10;3.00;;;;;;;12.96;50.11;101003.67;108106;1286;21995;-67
2023/03/17 10:43:58;;;;;;;5.50;3.00;;;;;;;12.94;50.02;100998.94;108177;1284;23609;-66
2023/03/17 10:46:28;;;;;;;5.20;2.50;;;;;;;12.99;50.34;100997.83;108132;1285;23641;-67
2023/03/17 10:49:04;;;;;;;5.80;3.00;;;;;;;13.03;49.98;100999.00;108257;1285;21987;-68
2023/03/17 10:51:35;;;;;;;4.90;2.70;;;;;;;13.05;49.85;100992.28;108144;1285;22094;-67
2023/03/17 10:54:18;;;;;;;4.90;2.10;;;;;;;13.02;49.50;100991.10;108229;1285;22456;-68
2023/03/17 10:56:48;;;;;;;4.00;2.10;;;;;;;12.99;49.63;100989.20;108145;1286;23777;-67
2023/03/17 10:59:19;;;;;;;4.20;2.10;;;;;;;12.95;49.25;100988.36;108284;1285;21992;-68
2023/03/17 11:01:48;;;;;;;12.50;7.90;;;;;;;12.96;49.42;100989.05;108113;1285;21985;-69
2023/03/17 11:04:40;;;;;;;7.30;4.80;;;;;;;13.01;50.08;100984.94;108103;1285;23718;-67
2023/03/17 11:07:30;;;;;;;5.70;3.50;;;;;;;13.06;49.80;100988.39;108143;1285;21994;-66
2023/03/17 11:09:57;;;;;;;5.40;2.70;;;;;;;13.08;49.51;100982.38;108278;1283;22759;-66
2023/03/17 11:12:33;;;;;;;5.00;2.60;;;;;;;13.13;49.75;100985.67;108151;1285;22092;-65
2023/03/17 11:15:02;;;;;;;4.30;2.40;;;;;;;13.16;49.31;100984.05;108095;1285;21999;-68
2023/03/17 11:17:38;;;;;;;4.30;2.60;;;;;;;13.15;49.12;100983.70;108203;1285;21984;-68
2023/03/17 11:20:14;;;;;;;4.60;2.80;;;;;;;13.08;48.57;100979.37;108185;1285;22045;-67
2023/03/17 11:22:41;;;;;;;6.70;4.10;;;;;;;13.06;48.63;100972.89;108224;1284;23074;-66